Map

Track Data

SID SEASON NUMBER BASIN SUBBASIN NAME ISO_TIME NATURE LAT LON WMO_WIND WMO_PRES WMO_AGENCY TRACK_TYPE DIST2LAND LANDFALL IFLAG USA_AGENCY USA_ATCF_ID USA_LAT USA_LON USA_RECORD USA_STATUS USA_WIND USA_PRES USA_SSHS USA_R34_NE USA_R34_SE USA_R34_SW USA_R34_NW USA_R50_NE USA_R50_SE USA_R50_SW USA_R50_NW USA_R64_NE USA_R64_SE USA_R64_SW USA_R64_NW USA_POCI USA_ROCI USA_RMW USA_EYE TOKYO_LAT TOKYO_LON TOKYO_GRADE TOKYO_WIND TOKYO_PRES TOKYO_R50_DIR TOKYO_R50_LONG TOKYO_R50_SHORT TOKYO_R30_DIR TOKYO_R30_LONG TOKYO_R30_SHORT TOKYO_LAND CMA_LAT CMA_LON CMA_CAT CMA_WIND CMA_PRES HKO_LAT HKO_LON HKO_CAT HKO_WIND HKO_PRES NEWDELHI_LAT NEWDELHI_LON NEWDELHI_GRADE NEWDELHI_WIND NEWDELHI_PRES NEWDELHI_CI NEWDELHI_DP NEWDELHI_POCI REUNION_LAT REUNION_LON REUNION_TYPE REUNION_WIND REUNION_PRES REUNION_TNUM REUNION_CI REUNION_RMW REUNION_R34_NE REUNION_R34_SE REUNION_R34_SW REUNION_R34_NW REUNION_R50_NE REUNION_R50_SE REUNION_R50_SW REUNION_R50_NW REUNION_R64_NE REUNION_R64_SE REUNION_R64_SW REUNION_R64_NW BOM_LAT BOM_LON BOM_TYPE BOM_WIND BOM_PRES BOM_TNUM BOM_CI BOM_RMW BOM_R34_NE BOM_R34_SE BOM_R34_SW BOM_R34_NW BOM_R50_NE BOM_R50_SE BOM_R50_SW BOM_R50_NW BOM_R64_NE BOM_R64_SE BOM_R64_SW BOM_R64_NW BOM_ROCI BOM_POCI BOM_EYE BOM_POS_METHOD BOM_PRES_METHOD NADI_LAT NADI_LON NADI_CAT NADI_WIND NADI_PRES WELLINGTON_LAT WELLINGTON_LON WELLINGTON_WIND WELLINGTON_PRES DS824_LAT DS824_LON DS824_STAGE DS824_WIND DS824_PRES TD9636_LAT TD9636_LON TD9636_STAGE TD9636_WIND TD9636_PRES TD9635_LAT TD9635_LON TD9635_WIND TD9635_PRES TD9635_ROCI NEUMANN_LAT NEUMANN_LON NEUMANN_CLASS NEUMANN_WIND NEUMANN_PRES MLC_LAT MLC_LON MLC_CLASS MLC_WIND MLC_PRES USA_GUST BOM_GUST BOM_GUST_PER REUNION_GUST REUNION_GUST_PER USA_SEAHGT USA_SEARAD_NE USA_SEARAD_SE USA_SEARAD_SW USA_SEARAD_NW STORM_SPEED STORM_DIR
1962192N17087 1962 51 NI BB NOT_NAMED 1962-07-10 18:00:00 TS 17.4000 86.7000 main 271 271 O________O____ jtwc_io IO061962 17.4000 86.7000 -1 17.4000 86.7000 TC 1 199
1962192N17087 1962 51 NI BB NOT_NAMED 1962-07-10 21:00:00 TS 17.3625 86.6850 main 271 263 P________P____ IO061962 17.3625 86.6850 -1 17.3625 86.6850 TC 1 270
1962192N17087 1962 51 NI BB NOT_NAMED 1962-07-11 00:00:00 TS 17.4000 86.6000 main 263 232 O________O____ jtwc_io IO061962 17.4000 86.6000 -1 17.4000 86.6000 TC 25 3 306
1962192N17087 1962 51 NI BB NOT_NAMED 1962-07-11 03:00:00 TS 17.5667 86.3955 main 232 193 P________PO___ IO061962 17.5625 86.3950 -1 17.5625 86.3950 TC 25 17.6000 86.4000 1 6 310
1962192N17087 1962 51 NI BB NOT_NAMED 1962-07-11 06:00:00 TS 17.8073 86.0915 main 193 155 O________OP___ jtwc_io IO061962 17.8000 86.1000 -1 17.8000 86.1000 TC 25 17.8367 86.0575 1 8 308
1962192N17087 1962 51 NI BB NOT_NAMED 1962-07-11 09:00:00 TS 18.0551 85.7478 main 139 101 P________PP___ IO061962 18.0500 85.7576 -1 18.0500 85.7576 TC 25 18.0685 85.7216 1 8 307
1962192N17087 1962 51 NI BB NOT_NAMED 1962-07-11 12:00:00 TS 18.2970 85.4000 main 101 62 O________OP___ jtwc_io IO061962 18.3000 85.4000 -1 18.3000 85.4000 TC 25 18.2910 85.3999 1 8 306
1962192N17087 1962 51 NI BB NOT_NAMED 1962-07-11 15:00:00 TS 18.4999 85.0999 main 62 23 P________PO___ IO061962 18.4999 85.0998 -1 18.4999 85.0998 TC 25 18.5000 85.1000 1 7 306
1962192N17087 1962 51 NI BB NOT_NAMED 1962-07-11 18:00:00 TS 18.6986 84.8074 main 23 0 O________OP___ jtwc_io IO061962 18.7000 84.8000 -1 18.7000 84.8000 TC 25 18.6957 84.8223 1 7 306
1962192N17087 1962 51 NI BB NOT_NAMED 1962-07-11 21:00:00 TS 18.9270 84.4842 main 0 0 P________PP___ IO061962 18.9425 84.4575 -1 18.9425 84.4575 TC 25 18.8961 84.5377 1 8 307
1962192N17087 1962 51 NI BB NOT_NAMED 1962-07-12 00:00:00 TS 19.1745 84.1365 main 0 0 O________OP___ jtwc_io IO061962 19.2000 84.1000 -1 19.2000 84.1000 TC 25 19.1235 84.2094 1 8 307
1962192N17087 1962 51 NI BB NOT_NAMED 1962-07-12 03:00:00 TS 19.4130 83.8012 main 0 0 P________PO___ IO061962 19.4195 83.8018 -1 19.4195 83.8018 TC 25 19.4000 83.8000 1 9 307
1962192N17087 1962 51 NI BB NOT_NAMED 1962-07-12 06:00:00 TS 19.7178 83.3646 main 0 0 O________OP___ jtwc_io IO061962 19.7000 83.4000 -1 19.7000 83.4000 TC 25 19.7535 83.2937 1 12 306
1962192N17087 1962 51 NI BB NOT_NAMED 1962-07-12 09:00:00 TS 20.1365 82.7401 main 0 0 P________PP___ IO061962 20.1277 82.7603 -1 20.1277 82.7603 TC 25 20.1543 82.6997 1 15 305
1962192N17087 1962 51 NI BB NOT_NAMED 1962-07-12 12:00:00 TS 20.5927 82.0103 main 0 0 O________OP___ jtwc_io IO061962 20.6000 82.0000 -1 20.6000 82.0000 TC 25 20.5780 82.0308 1 16 303
1962192N17087 1962 51 NI BB NOT_NAMED 1962-07-12 15:00:00 TS 21.0098 81.2764 main 0 0 P________PO___ IO061962 21.0147 81.2646 -1 21.0147 81.2646 TC 25 21.0000 81.3000 1 16 300
1962192N17087 1962 51 NI BB NOT_NAMED 1962-07-12 18:00:00 TS 21.4004 80.5082 main 0 0 O________OP___ jtwc_io IO061962 21.4000 80.5000 -1 21.4000 80.5000 TC 25 21.4009 80.5204 1 16 297
1962192N17087 1962 51 NI BB NOT_NAMED 1962-07-12 21:00:00 TS 21.7681 79.7061 main 0 0 P________PP___ IO061962 21.7583 79.7083 -1 21.7583 79.7083 TC 25 21.7811 79.7031 1 17 296
1962192N17087 1962 51 NI BB NOT_NAMED 1962-07-13 00:00:00 TS 22.1228 78.8796 main 0 0 O________OP___ jtwc_io IO061962 22.1000 78.9000 -1 22.1000 78.9000 TC 25 22.1456 78.8592 1 17 295
1962192N17087 1962 51 NI AS NOT_NAMED 1962-07-13 03:00:00 NR 22.5000 78.0000 main 0 __________O___ IO061962 -1 TC 22.5000 78.0000 1 18 295

About IBTrACS Database

This database is a web-friendly format of International Best Track Archive for Climate Stewardship (IBTrACS), a global best track data archive curated by NOAA dating back to 1842.

Updated: 2021-12-01